Rio Minho — CUGF6 — position and weather

sailwx.info

Track history (hours):
 
Tides and Currents Weather Stations Pressure Air Temp Water Temp Dewpoint Dewpoint Depression Visibility Wind Speed Wind Dir Waves Ship Positions

Rio Minho

Last reported at 2018-Jun-21 19:42 UTC. Time now 2018-Jun-22 00:02 UTC.
Position N 39°17' W 009°29'.

Length 24 m.

Type: Fishing. MMSI: 263406490.

Date/timePositionNaut miles runAvg speedWind from/ knotsBaromVisibWave heightAir tempDewpointWater temp
2018-Jun-21 19:42N 39°17' W 009°29'2 7.8
2018-Jun-21 19:30N 39°15' W 009°30'2 3.0
2018-Jun-21 19:00N 39°15' W 009°32'0 0.6
2018-Jun-21 18:30N 39°15' W 009°32'0 0.3
2018-Jun-21 18:00N 39°15' W 009°32'0 1.0
2018-Jun-21 17:30N 39°15' W 009°32'2 3.5
2018-Jun-21 16:57N 39°16' W 009°30'5 2.3
2018-Jun-21 14:55N 39°19' W 009°26'1 0.0
2018-Jun-20 22:25N 39°19' W 009°25'410.3
2018-Jun-20 21:58N 39°15' W 009°29'2 4.9
2018-Jun-20 21:30N 39°14' W 009°30'0 0.2
2018-Jun-20 21:00N 39°14' W 009°30'0 0.2
2018-Jun-20 20:30N 39°13' W 009°30'2 4.1
2018-Jun-20 19:58N 39°11' W 009°31'1 1.7
2018-Jun-20 19:30N 39°12' W 009°31'1 1.6
2018-Jun-20 19:00N 39°13' W 009°31'4 4.4
2018-Jun-20 18:01N 39°17' W 009°31'0 8.5
2018-Jun-20 18:00N 39°17' W 009°30'3 1.4
2018-Jun-20 15:51N 39°17' W 009°27'4 9.9
2018-Jun-20 15:29N 39°14' W 009°29'3 0.1
2018-Jun-19 15:47N 39°15' W 009°25'3 3.1
2018-Jun-19 14:51N 39°13' W 009°27'0 0.2
2018-Jun-19 14:29N 39°13' W 009°27'0 0.2
2018-Jun-19 13:59N 39°13' W 009°27'6 0.2
2018-Jun-18 14:22N 39°18' W 009°26'0 0.1
2018-Jun-18 13:56N 39°18' W 009°26'  
2018-Jun-15 20:02N 39°16' W 009°27'3 0.4
2018-Jun-15 14:06N 39°13' W 009°28'3 0.2
2018-Jun-14 16:00N 39°16' W 009°26'3 6.7
2018-Jun-14 15:30N 39°13' W 009°28'0 0.1
2018-Jun-14 14:59N 39°13' W 009°28'0 0.4
2018-Jun-14 14:30N 39°13' W 009°28'3 0.2
2018-Jun-13 21:01N 39°11' W 009°24'1 9.3
2018-Jun-13 20:53N 39°10' W 009°24'0 0.0
2018-Jun-13 20:21N 39°10' W 009°24'0 0.4
2018-Jun-13 20:00N 39°10' W 009°24'2 2.5
2018-Jun-13 19:21N 39°10' W 009°26'4 1.2
2018-Jun-13 15:35N 39°15' W 009°24'1 9.6
2018-Jun-13 15:30N 39°14' W 009°25'2 1.8
2018-Jun-13 14:38N 39°12' W 009°25'0 0.5
2018-Jun-13 14:29N 39°12' W 009°25'0 0.3
2018-Jun-13 14:00N 39°12' W 009°25'5 0.3
2018-Jun-12 19:49N 39°07' W 009°26'3 9.0
2018-Jun-12 19:31N 39°05' W 009°26'4 8.9
2018-Jun-12 19:00N 39°00' W 009°27'4 8.9
2018-Jun-12 18:31N 38°56' W 009°28'3 6.5
2018-Jun-12 18:00N 38°53' W 009°29'1 1.3
2018-Jun-12 17:30N 38°53' W 009°29'0 0.7
2018-Jun-12 17:01N 38°54' W 009°29'0 0.5
2018-Jun-12 16:31N 38°54' W 009°28'1 2.0
2018-Jun-12 16:00N 38°53' W 009°28'3 6.5
2018-Jun-12 15:30N 38°56' W 009°27'510.1
2018-Jun-12 15:00N 39°01' W 009°28'510.9
2018-Jun-12 14:30N 39°07' W 009°28'10 1.2
2018-Jun-12 06:15N 39°16' W 009°24'1 1.6
2018-Jun-12 05:49N 39°15' W 009°24'0 0.0
2018-Jun-11 21:05N 39°15' W 009°24'1 8.7
2018-Jun-11 21:00N 39°15' W 009°25'4 8.6
2018-Jun-11 20:30N 39°11' W 009°27'1 1.6
2018-Jun-11 19:59N 39°10' W 009°28'  
Track history (hours):
 
Tides and Currents Weather Stations Pressure Air Temp Water Temp Dewpoint Dewpoint Depression Visibility Wind Speed Wind Dir Waves Ship Positions

Rio Minho

Last reported at 2018-Jun-21 19:42 UTC. Time now 2018-Jun-22 00:02 UTC.
Position N 39°17' W 009°29'.

Length 24 m.

Type: Fishing. MMSI: 263406490.

Date/timePositionNaut miles runAvg speedWind from/ knotsBaromVisibWave heightAir tempDewpointWater temp
2018-Jun-21 19:42N 39°17' W 009°29'2 7.8
2018-Jun-21 19:30N 39°15' W 009°30'2 3.0
2018-Jun-21 19:00N 39°15' W 009°32'0 0.6
2018-Jun-21 18:30N 39°15' W 009°32'0 0.3
2018-Jun-21 18:00N 39°15' W 009°32'0 1.0
2018-Jun-21 17:30N 39°15' W 009°32'2 3.5
2018-Jun-21 16:57N 39°16' W 009°30'5 2.3
2018-Jun-21 14:55N 39°19' W 009°26'1 0.0
2018-Jun-20 22:25N 39°19' W 009°25'410.3
2018-Jun-20 21:58N 39°15' W 009°29'2 4.9
2018-Jun-20 21:30N 39°14' W 009°30'0 0.2
2018-Jun-20 21:00N 39°14' W 009°30'0 0.2
2018-Jun-20 20:30N 39°13' W 009°30'2 4.1
2018-Jun-20 19:58N 39°11' W 009°31'1 1.7
2018-Jun-20 19:30N 39°12' W 009°31'1 1.6
2018-Jun-20 19:00N 39°13' W 009°31'4 4.4
2018-Jun-20 18:01N 39°17' W 009°31'0 8.5
2018-Jun-20 18:00N 39°17' W 009°30'3 1.4
2018-Jun-20 15:51N 39°17' W 009°27'4 9.9
2018-Jun-20 15:29N 39°14' W 009°29'3 0.1
2018-Jun-19 15:47N 39°15' W 009°25'3 3.1
2018-Jun-19 14:51N 39°13' W 009°27'0 0.2
2018-Jun-19 14:29N 39°13' W 009°27'0 0.2
2018-Jun-19 13:59N 39°13' W 009°27'6 0.2
2018-Jun-18 14:22N 39°18' W 009°26'0 0.1
2018-Jun-18 13:56N 39°18' W 009°26'  
2018-Jun-15 20:02N 39°16' W 009°27'3 0.4
2018-Jun-15 14:06N 39°13' W 009°28'3 0.2
2018-Jun-14 16:00N 39°16' W 009°26'3 6.7
2018-Jun-14 15:30N 39°13' W 009°28'0 0.1
2018-Jun-14 14:59N 39°13' W 009°28'0 0.4
2018-Jun-14 14:30N 39°13' W 009°28'3 0.2
2018-Jun-13 21:01N 39°11' W 009°24'1 9.3
2018-Jun-13 20:53N 39°10' W 009°24'0 0.0
2018-Jun-13 20:21N 39°10' W 009°24'0 0.4
2018-Jun-13 20:00N 39°10' W 009°24'2 2.5
2018-Jun-13 19:21N 39°10' W 009°26'4 1.2
2018-Jun-13 15:35N 39°15' W 009°24'1 9.6
2018-Jun-13 15:30N 39°14' W 009°25'2 1.8
2018-Jun-13 14:38N 39°12' W 009°25'0 0.5
2018-Jun-13 14:29N 39°12' W 009°25'0 0.3
2018-Jun-13 14:00N 39°12' W 009°25'5 0.3
2018-Jun-12 19:49N 39°07' W 009°26'3 9.0
2018-Jun-12 19:31N 39°05' W 009°26'4 8.9
2018-Jun-12 19:00N 39°00' W 009°27'4 8.9
2018-Jun-12 18:31N 38°56' W 009°28'3 6.5
2018-Jun-12 18:00N 38°53' W 009°29'1 1.3
2018-Jun-12 17:30N 38°53' W 009°29'0 0.7
2018-Jun-12 17:01N 38°54' W 009°29'0 0.5
2018-Jun-12 16:31N 38°54' W 009°28'1 2.0
2018-Jun-12 16:00N 38°53' W 009°28'3 6.5
2018-Jun-12 15:30N 38°56' W 009°27'510.1
2018-Jun-12 15:00N 39°01' W 009°28'510.9
2018-Jun-12 14:30N 39°07' W 009°28'10 1.2
2018-Jun-12 06:15N 39°16' W 009°24'1 1.6
2018-Jun-12 05:49N 39°15' W 009°24'0 0.0
2018-Jun-11 21:05N 39°15' W 009°24'1 8.7
2018-Jun-11 21:00N 39°15' W 009°25'4 8.6
2018-Jun-11 20:30N 39°11' W 009°27'1 1.6
2018-Jun-11 19:59N 39°10' W 009°28'  

Dump ship's entire track history